sensor_id;sensor_type;location;lat;lon;timestamp;pressure;altitude;pressure_sealevel;temperature;humidity
75794;BME280;64418;47.536;19.074;2023-02-01T00:00:15;100347.53;;;2.54;85.33
75794;BME280;64418;47.536;19.074;2023-02-01T00:02:40;100353.41;;;2.58;85.24
75794;BME280;64418;47.536;19.074;2023-02-01T00:05:07;100352.87;;;2.54;85.17
75794;BME280;64418;47.536;19.074;2023-02-01T00:07:33;100363.25;;;2.57;85.19
75794;BME280;64418;47.536;19.074;2023-02-01T00:09:59;100352.28;;;2.60;84.79
75794;BME280;64418;47.536;19.074;2023-02-01T00:12:24;100351.56;;;2.58;84.85
75794;BME280;64418;47.536;19.074;2023-02-01T00:14:50;100345.75;;;2.63;84.55
75794;BME280;64418;47.536;19.074;2023-02-01T00:17:17;100348.81;;;2.68;84.43
75794;BME280;64418;47.536;19.074;2023-02-01T00:19:43;100347.97;;;2.67;84.39
75794;BME280;64418;47.536;19.074;2023-02-01T00:22:08;100351.31;;;2.69;84.28
75794;BME280;64418;47.536;19.074;2023-02-01T00:24:34;100349.03;;;2.74;84.02
75794;BME280;64418;47.536;19.074;2023-02-01T00:27:00;100345.66;;;2.72;83.96
75794;BME280;64418;47.536;19.074;2023-02-01T00:29:26;100343.34;;;2.77;83.87
75794;BME280;64418;47.536;19.074;2023-02-01T00:31:51;100350.06;;;2.81;83.49
75794;BME280;64418;47.536;19.074;2023-02-01T00:34:19;100347.53;;;2.80;83.45
75794;BME280;64418;47.536;19.074;2023-02-01T00:36:45;100347.38;;;2.81;83.17
75794;BME280;64418;47.536;19.074;2023-02-01T00:39:11;100355.94;;;2.85;82.83
75794;BME280;64418;47.536;19.074;2023-02-01T00:41:37;100351.81;;;2.90;82.08
75794;BME280;64418;47.536;19.074;2023-02-01T00:44:03;100344.12;;;2.96;81.49
75794;BME280;64418;47.536;19.074;2023-02-01T00:46:29;100341.13;;;2.99;81.30
75794;BME280;64418;47.536;19.074;2023-02-01T00:48:55;100332.94;;;3.00;81.01
75794;BME280;64418;47.536;19.074;2023-02-01T00:51:24;100334.63;;;3.01;81.18
75794;BME280;64418;47.536;19.074;2023-02-01T00:53:50;100338.81;;;3.04;81.14
75794;BME280;64418;47.536;19.074;2023-02-01T00:56:16;100334.31;;;3.04;81.23
75794;BME280;64418;47.536;19.074;2023-02-01T00:58:42;100346.53;;;3.07;81.12
75794;BME280;64418;47.536;19.074;2023-02-01T01:01:10;100344.53;;;3.09;81.41
75794;BME280;64418;47.536;19.074;2023-02-01T01:03:38;100345.87;;;3.05;81.49
75794;BME280;64418;47.536;19.074;2023-02-01T01:06:06;100345.34;;;3.01;81.58
75794;BME280;64418;47.536;19.074;2023-02-01T01:08:38;100339.47;;;2.98;81.84
75794;BME280;64418;47.536;19.074;2023-02-01T01:11:04;100328.91;;;2.96;81.81
75794;BME280;64418;47.536;19.074;2023-02-01T01:13:30;100316.38;;;2.97;81.98
75794;BME280;64418;47.536;19.074;2023-02-01T01:15:56;100312.72;;;2.98;81.93
75794;BME280;64418;47.536;19.074;2023-02-01T01:18:21;100310.31;;;2.86;82.17
75794;BME280;64418;47.536;19.074;2023-02-01T01:20:47;100302.94;;;2.88;81.89
75794;BME280;64418;47.536;19.074;2023-02-01T01:23:13;100294.47;;;2.67;82.54
75794;BME280;64418;47.536;19.074;2023-02-01T01:25:40;100291.03;;;2.49;83.44
75794;BME280;64418;47.536;19.074;2023-02-01T01:28:09;100304.53;;;2.22;84.57
75794;BME280;64418;47.536;19.074;2023-02-01T01:30:35;100285.22;;;2.10;85.28
75794;BME280;64418;47.536;19.074;2023-02-01T01:33:01;100287.84;;;1.84;86.15
75794;BME280;64418;47.536;19.074;2023-02-01T01:35:29;100296.28;;;1.62;86.93
75794;BME280;64418;47.536;19.074;2023-02-01T01:37:55;100282.78;;;1.64;87.46
75794;BME280;64418;47.536;19.074;2023-02-01T01:40:21;100287.81;;;1.49;88.34
75794;BME280;64418;47.536;19.074;2023-02-01T01:42:48;100275.75;;;1.45;89.08
75794;BME280;64418;47.536;19.074;2023-02-01T01:45:22;100269.53;;;1.27;89.93
75794;BME280;64418;47.536;19.074;2023-02-01T01:47:52;100285.25;;;1.03;90.68
75794;BME280;64418;47.536;19.074;2023-02-01T01:50:21;100288.97;;;1.19;91.24
75794;BME280;64418;47.536;19.074;2023-02-01T01:52:51;100293.97;;;1.32;90.13
75794;BME280;64418;47.536;19.074;2023-02-01T01:55:19;100292.41;;;1.29;90.16
75794;BME280;64418;47.536;19.074;2023-02-01T01:57:50;100281.78;;;1.82;86.94
75794;BME280;64418;47.536;19.074;2023-02-01T02:00:19;100277.22;;;1.92;86.06
75794;BME280;64418;47.536;19.074;2023-02-01T02:02:47;100266.91;;;2.41;82.55
75794;BME280;64418;47.536;19.074;2023-02-01T02:05:15;100262.34;;;2.93;78.68
75794;BME280;64418;47.536;19.074;2023-02-01T02:07:47;100259.66;;;2.59;79.66
75794;BME280;64418;47.536;19.074;2023-02-01T02:10:18;100264.75;;;2.70;79.33
75794;BME280;64418;47.536;19.074;2023-02-01T02:12:46;100270.84;;;2.88;78.82
75794;BME280;64418;47.536;19.074;2023-02-01T02:15:15;100255.22;;;3.10;77.45
75794;BME280;64418;47.536;19.074;2023-02-01T02:17:45;100264.34;;;2.91;78.05
75794;BME280;64418;47.536;19.074;2023-02-01T02:20:37;100254.31;;;2.59;79.56
75794;BME280;64418;47.536;19.074;2023-02-01T02:23:39;100263.69;;;2.63;79.76
75794;BME280;64418;47.536;19.074;2023-02-01T02:26:35;100256.28;;;2.49;80.81
75794;BME280;64418;47.536;19.074;2023-02-01T02:32:27;100258.09;;;2.74;79.37
75794;BME280;64418;47.536;19.074;2023-02-01T02:35:02;100253.09;;;2.79;79.04
75794;BME280;64418;47.536;19.074;2023-02-01T02:37:38;100244.37;;;2.77;79.54
75794;BME280;64418;47.536;19.074;2023-02-01T02:40:17;100246.41;;;2.75;79.59
75794;BME280;64418;47.536;19.074;2023-02-01T02:42:52;100242.75;;;2.84;79.00
75794;BME280;64418;47.536;19.074;2023-02-01T02:45:25;100250.06;;;2.74;79.72
75794;BME280;64418;47.536;19.074;2023-02-01T02:47:56;100249.06;;;2.75;79.60
75794;BME280;64418;47.536;19.074;2023-02-01T02:50:27;100247.37;;;2.74;79.94
75794;BME280;64418;47.536;19.074;2023-02-01T02:52:59;100240.25;;;2.57;80.23
75794;BME280;64418;47.536;19.074;2023-02-01T02:55:27;100238.66;;;2.64;80.34
75794;BME280;64418;47.536;19.074;2023-02-01T02:57:55;100239.34;;;2.15;82.28
75794;BME280;64418;47.536;19.074;2023-02-01T03:00:27;100242.09;;;2.31;82.22
75794;BME280;64418;47.536;19.074;2023-02-01T03:02:53;100243.19;;;2.46;80.98
75794;BME280;64418;47.536;19.074;2023-02-01T03:05:19;100234.19;;;2.47;81.06
75794;BME280;64418;47.536;19.074;2023-02-01T03:08:10;100230.63;;;2.13;82.31
75794;BME280;64418;47.536;19.074;2023-02-01T03:10:42;100223.31;;;2.15;82.82
75794;BME280;64418;47.536;19.074;2023-02-01T03:13:15;100219.09;;;2.64;80.71
75794;BME280;64418;47.536;19.074;2023-02-01T03:15:45;100200.41;;;3.30;77.10
75794;BME280;64418;47.536;19.074;2023-02-01T03:18:21;100203.09;;;3.30;76.68
75794;BME280;64418;47.536;19.074;2023-02-01T03:20:53;100209.00;;;3.50;75.53
75794;BME280;64418;47.536;19.074;2023-02-01T03:23:27;100202.44;;;3.44;75.75
75794;BME280;64418;47.536;19.074;2023-02-01T03:25:56;100192.44;;;3.54;75.58
75794;BME280;64418;47.536;19.074;2023-02-01T03:28:25;100203.78;;;3.48;75.43
75794;BME280;64418;47.536;19.074;2023-02-01T03:30:53;100205.66;;;3.64;74.82
75794;BME280;64418;47.536;19.074;2023-02-01T03:33:21;100200.47;;;3.54;75.25
75794;BME280;64418;47.536;19.074;2023-02-01T03:35:55;100199.13;;;3.74;74.00
75794;BME280;64418;47.536;19.074;2023-02-01T03:38:28;100181.72;;;3.62;74.62
75794;BME280;64418;47.536;19.074;2023-02-01T03:41:01;100194.75;;;3.49;74.98
75794;BME280;64418;47.536;19.074;2023-02-01T03:43:33;100178.03;;;3.71;74.16
75794;BME280;64418;47.536;19.074;2023-02-01T03:46:07;100200.28;;;3.56;75.02
75794;BME280;64418;47.536;19.074;2023-02-01T03:48:35;100194.62;;;3.59;74.87
75794;BME280;64418;47.536;19.074;2023-02-01T03:51:03;100190.59;;;3.71;74.27
75794;BME280;64418;47.536;19.074;2023-02-01T03:53:33;100200.47;;;3.62;74.76
75794;BME280;64418;47.536;19.074;2023-02-01T03:56:01;100201.81;;;3.58;74.71
75794;BME280;64418;47.536;19.074;2023-02-01T03:58:27;100189.56;;;3.64;74.43
75794;BME280;64418;47.536;19.074;2023-02-01T04:00:56;100190.91;;;3.68;74.55
75794;BME280;64418;47.536;19.074;2023-02-01T04:03:24;100185.56;;;3.44;75.64
75794;BME280;64418;47.536;19.074;2023-02-01T04:05:50;100200.13;;;3.49;75.29
75794;BME280;64418;47.536;19.074;2023-02-01T04:08:16;100182.69;;;3.45;75.46
75794;BME280;64418;47.536;19.074;2023-02-01T04:10:43;100200.81;;;3.51;75.41
75794;BME280;64418;47.536;19.074;2023-02-01T04:13:09;100199.75;;;3.28;76.44
75794;BME280;64418;47.536;19.074;2023-02-01T04:15:35;100197.38;;;3.25;76.42
75794;BME280;64418;47.536;19.074;2023-02-01T04:18:00;100195.09;;;3.46;75.66
75794;BME280;64418;47.536;19.074;2023-02-01T04:20:26;100183.22;;;3.49;75.58
75794;BME280;64418;47.536;19.074;2023-02-01T04:22:52;100177.34;;;3.53;75.17
75794;BME280;64418;47.536;19.074;2023-02-01T04:25:18;100191.75;;;3.60;74.87
75794;BME280;64418;47.536;19.074;2023-02-01T04:27:49;100193.78;;;3.58;74.81
75794;BME280;64418;47.536;19.074;2023-02-01T04:30:15;100185.22;;;3.47;75.18
75794;BME280;64418;47.536;19.074;2023-02-01T04:32:42;100198.25;;;3.42;75.48
75794;BME280;64418;47.536;19.074;2023-02-01T04:35:08;100182.06;;;3.51;75.14
75794;BME280;64418;47.536;19.074;2023-02-01T04:37:34;100185.72;;;3.50;75.18
75794;BME280;64418;47.536;19.074;2023-02-01T04:40:00;100199.59;;;3.46;75.44
75794;BME280;64418;47.536;19.074;2023-02-01T04:42:26;100202.13;;;3.47;75.42
75794;BME280;64418;47.536;19.074;2023-02-01T04:44:53;100202.78;;;3.41;75.50
75794;BME280;64418;47.536;19.074;2023-02-01T04:47:19;100211.16;;;3.46;75.22
75794;BME280;64418;47.536;19.074;2023-02-01T04:49:45;100209.81;;;3.42;75.67
75794;BME280;64418;47.536;19.074;2023-02-01T04:52:11;100223.06;;;3.44;75.58
75794;BME280;64418;47.536;19.074;2023-02-01T04:54:36;100225.00;;;3.25;76.39
75794;BME280;64418;47.536;19.074;2023-02-01T04:57:02;100220.16;;;3.29;76.00
75794;BME280;64418;47.536;19.074;2023-02-01T04:59:27;100181.00;;;3.28;76.46
75794;BME280;64418;47.536;19.074;2023-02-01T05:01:54;100238.03;;;3.20;76.70
75794;BME280;64418;47.536;19.074;2023-02-01T05:04:20;100216.75;;;3.11;77.35
75794;BME280;64418;47.536;19.074;2023-02-01T05:06:47;100226.09;;;3.07;77.51
75794;BME280;64418;47.536;19.074;2023-02-01T05:09:13;100216.78;;;3.19;76.86
75794;BME280;64418;47.536;19.074;2023-02-01T05:11:40;100235.16;;;3.14;77.26
75794;BME280;64418;47.536;19.074;2023-02-01T05:14:06;100223.09;;;3.10;77.34
75794;BME280;64418;47.536;19.074;2023-02-01T05:16:31;100212.12;;;3.21;76.87
75794;BME280;64418;47.536;19.074;2023-02-01T05:18:58;100230.63;;;3.06;77.48
75794;BME280;64418;47.536;19.074;2023-02-01T05:21:24;100241.13;;;3.00;77.92
75794;BME280;64418;47.536;19.074;2023-02-01T05:23:50;100239.66;;;3.05;77.43
75794;BME280;64418;47.536;19.074;2023-02-01T05:26:16;100231.38;;;2.82;78.77
75794;BME280;64418;47.536;19.074;2023-02-01T05:28:41;100243.78;;;2.91;78.10
75794;BME280;64418;47.536;19.074;2023-02-01T05:31:09;100243.19;;;2.72;79.06
75794;BME280;64418;47.536;19.074;2023-02-01T05:33:35;100240.87;;;2.77;79.11
75794;BME280;64418;47.536;19.074;2023-02-01T05:36:03;100235.31;;;2.70;79.33
75794;BME280;64418;47.536;19.074;2023-02-01T05:38:29;100229.28;;;2.68;79.30
75794;BME280;64418;47.536;19.074;2023-02-01T05:40:55;100230.81;;;2.71;78.91
75794;BME280;64418;47.536;19.074;2023-02-01T05:43:20;100232.22;;;2.83;78.54
75794;BME280;64418;47.536;19.074;2023-02-01T05:45:46;100233.63;;;2.69;79.30
75794;BME280;64418;47.536;19.074;2023-02-01T05:48:12;100239.19;;;2.76;79.16
75794;BME280;64418;47.536;19.074;2023-02-01T05:50:38;100235.12;;;2.64;79.88
75794;BME280;64418;47.536;19.074;2023-02-01T05:53:05;100243.09;;;2.56;80.12
75794;BME280;64418;47.536;19.074;2023-02-01T05:55:31;100253.47;;;2.59;80.15
75794;BME280;64418;47.536;19.074;2023-02-01T05:57:57;100244.25;;;2.53;80.50
75794;BME280;64418;47.536;19.074;2023-02-01T06:00:23;100249.06;;;2.75;79.72
75794;BME280;64418;47.536;19.074;2023-02-01T06:02:49;100254.00;;;2.62;80.20
75794;BME280;64418;47.536;19.074;2023-02-01T06:05:15;100252.88;;;2.73;79.90
75794;BME280;64418;47.536;19.074;2023-02-01T06:07:41;100240.72;;;2.78;79.62
75794;BME280;64418;47.536;19.074;2023-02-01T06:10:10;100253.63;;;2.91;78.97
75794;BME280;64418;47.536;19.074;2023-02-01T06:12:36;100255.78;;;2.79;79.72
75794;BME280;64418;47.536;19.074;2023-02-01T06:15:02;100255.25;;;2.50;80.71
75794;BME280;64418;47.536;19.074;2023-02-01T06:17:27;100259.06;;;2.73;80.17
75794;BME280;64418;47.536;19.074;2023-02-01T06:19:53;100275.97;;;2.74;80.37
75794;BME280;64418;47.536;19.074;2023-02-01T06:22:22;100284.34;;;2.79;79.94
75794;BME280;64418;47.536;19.074;2023-02-01T06:24:48;100297.81;;;2.69;80.21
75794;BME280;64418;47.536;19.074;2023-02-01T06:27:15;100251.47;;;2.35;81.24
75794;BME280;64418;47.536;19.074;2023-02-01T06:29:40;100289.47;;;2.64;80.89
75794;BME280;64418;47.536;19.074;2023-02-01T06:32:06;100291.34;;;2.72;80.42
75794;BME280;64418;47.536;19.074;2023-02-01T06:34:32;100293.84;;;2.73;80.51
75794;BME280;64418;47.536;19.074;2023-02-01T06:36:58;100292.41;;;2.61;80.98
75794;BME280;64418;47.536;19.074;2023-02-01T06:39:24;100305.37;;;2.74;80.50
75794;BME280;64418;47.536;19.074;2023-02-01T06:41:50;100308.41;;;3.05;79.53
75794;BME280;64418;47.536;19.074;2023-02-01T06:44:17;100305.94;;;3.61;77.03
75794;BME280;64418;47.536;19.074;2023-02-01T06:46:43;100307.31;;;3.98;75.03
75794;BME280;64418;47.536;19.074;2023-02-01T06:49:09;100304.34;;;4.25;73.90
75794;BME280;64418;47.536;19.074;2023-02-01T06:51:35;100308.69;;;4.34;73.13
75794;BME280;64418;47.536;19.074;2023-02-01T06:54:01;100298.13;;;4.24;73.38
75794;BME280;64418;47.536;19.074;2023-02-01T06:56:27;100302.66;;;4.56;71.94
75794;BME280;64418;47.536;19.074;2023-02-01T06:58:53;100313.34;;;4.72;71.28
75794;BME280;64418;47.536;19.074;2023-02-01T07:01:20;100323.78;;;5.14;69.53
75794;BME280;64418;47.536;19.074;2023-02-01T07:03:47;100313.84;;;5.31;68.74
75794;BME280;64418;47.536;19.074;2023-02-01T07:06:21;100313.50;;;5.34;68.14
75794;BME280;64418;47.536;19.074;2023-02-01T07:08:48;100301.09;;;5.95;66.28
75794;BME280;64418;47.536;19.074;2023-02-01T07:11:15;100303.25;;;5.99;65.87
75794;BME280;64418;47.536;19.074;2023-02-01T07:13:41;100296.62;;;6.47;64.10
75794;BME280;64418;47.536;19.074;2023-02-01T07:16:10;100282.06;;;6.42;64.34
75794;BME280;64418;47.536;19.074;2023-02-01T07:18:38;100297.84;;;5.76;65.79
75794;BME280;64418;47.536;19.074;2023-02-01T07:21:04;100303.25;;;5.68;66.43
75794;BME280;64418;47.536;19.074;2023-02-01T07:23:30;100307.63;;;5.69;66.29
75794;BME280;64418;47.536;19.074;2023-02-01T07:25:57;100301.56;;;5.98;65.22
75794;BME280;64418;47.536;19.074;2023-02-01T07:28:23;100299.91;;;6.20;64.70
75794;BME280;64418;47.536;19.074;2023-02-01T07:30:49;100310.75;;;7.16;61.55
75794;BME280;64418;47.536;19.074;2023-02-01T07:33:15;100305.91;;;7.26;60.87
75794;BME280;64418;47.536;19.074;2023-02-01T07:35:43;100306.66;;;7.70;59.53
75794;BME280;64418;47.536;19.074;2023-02-01T07:38:09;100309.72;;;7.02;60.57
75794;BME280;64418;47.536;19.074;2023-02-01T07:40:35;100316.50;;;7.28;59.96
75794;BME280;64418;47.536;19.074;2023-02-01T07:43:01;100320.62;;;7.74;58.63
75794;BME280;64418;47.536;19.074;2023-02-01T07:45:31;100302.66;;;7.81;57.50
75794;BME280;64418;47.536;19.074;2023-02-01T07:47:57;100310.50;;;7.61;57.80
75794;BME280;64418;47.536;19.074;2023-02-01T07:50:23;100322.97;;;8.19;55.58
75794;BME280;64418;47.536;19.074;2023-02-01T07:52:50;100322.41;;;8.03;55.95
75794;BME280;64418;47.536;19.074;2023-02-01T07:55:16;100320.34;;;8.05;55.24
75794;BME280;64418;47.536;19.074;2023-02-01T07:57:41;100323.44;;;8.23;55.08
75794;BME280;64418;47.536;19.074;2023-02-01T08:00:08;100315.03;;;8.11;55.66
75794;BME280;64418;47.536;19.074;2023-02-01T08:02:34;100315.56;;;7.86;55.89
75794;BME280;64418;47.536;19.074;2023-02-01T08:05:00;100331.38;;;7.89;55.78
75794;BME280;64418;47.536;19.074;2023-02-01T08:07:26;100302.81;;;7.29;57.08
75794;BME280;64418;47.536;19.074;2023-02-01T08:09:53;100319.22;;;6.98;58.62
75794;BME280;64418;47.536;19.074;2023-02-01T08:12:19;100322.66;;;6.69;59.56
75794;BME280;64418;47.536;19.074;2023-02-01T08:14:45;100325.59;;;6.45;60.36
75794;BME280;64418;47.536;19.074;2023-02-01T08:17:11;100337.12;;;6.68;60.33
75794;BME280;64418;47.536;19.074;2023-02-01T08:19:37;100337.28;;;6.90;59.75
75794;BME280;64418;47.536;19.074;2023-02-01T08:22:04;100334.56;;;6.60;60.72
75794;BME280;64418;47.536;19.074;2023-02-01T08:24:29;100335.72;;;7.39;58.65
75794;BME280;64418;47.536;19.074;2023-02-01T08:26:56;100341.50;;;6.69;60.08
75794;BME280;64418;47.536;19.074;2023-02-01T08:29:22;100350.66;;;6.83;59.95
75794;BME280;64418;47.536;19.074;2023-02-01T08:31:48;100361.25;;;6.99;59.45
75794;BME280;64418;47.536;19.074;2023-02-01T08:34:14;100364.06;;;7.64;57.29
75794;BME280;64418;47.536;19.074;2023-02-01T08:36:40;100379.31;;;8.44;54.85
75794;BME280;64418;47.536;19.074;2023-02-01T08:39:06;100372.44;;;8.62;54.23
75794;BME280;64418;47.536;19.074;2023-02-01T08:41:32;100367.56;;;8.30;54.28
75794;BME280;64418;47.536;19.074;2023-02-01T08:44:00;100382.87;;;7.94;55.64
75794;BME280;64418;47.536;19.074;2023-02-01T08:46:26;100364.88;;;8.30;54.42
75794;BME280;64418;47.536;19.074;2023-02-01T08:48:52;100378.06;;;8.25;54.64
75794;BME280;64418;47.536;19.074;2023-02-01T08:51:20;100371.41;;;7.41;56.84
75794;BME280;64418;47.536;19.074;2023-02-01T08:53:47;100378.09;;;7.16;58.18
75794;BME280;64418;47.536;19.074;2023-02-01T08:56:15;100361.38;;;7.06;58.69
75794;BME280;64418;47.536;19.074;2023-02-01T08:58:41;100366.66;;;8.44;55.27
75794;BME280;64418;47.536;19.074;2023-02-01T09:01:10;100369.44;;;9.34;52.37
75794;BME280;64418;47.536;19.074;2023-02-01T09:03:36;100364.59;;;8.10;55.20
75794;BME280;64418;47.536;19.074;2023-02-01T09:06:03;100361.75;;;7.32;57.49
75794;BME280;64418;47.536;19.074;2023-02-01T09:08:30;100341.56;;;6.99;58.77
75794;BME280;64418;47.536;19.074;2023-02-01T09:10:59;100358.47;;;6.55;60.01
75794;BME280;64418;47.536;19.074;2023-02-01T09:13:24;100347.62;;;7.15;58.42
75794;BME280;64418;47.536;19.074;2023-02-01T09:15:50;100360.00;;;10.05;50.28
75794;BME280;64418;47.536;19.074;2023-02-01T09:18:17;100350.56;;;10.82;48.58
75794;BME280;64418;47.536;19.074;2023-02-01T09:20:43;100340.00;;;9.18;51.57
75794;BME280;64418;47.536;19.074;2023-02-01T09:23:09;100345.69;;;11.43;46.56
75794;BME280;64418;47.536;19.074;2023-02-01T09:25:37;100356.19;;;11.90;44.83
75794;BME280;64418;47.536;19.074;2023-02-01T09:28:03;100363.22;;;12.11;45.02
75794;BME280;64418;47.536;19.074;2023-02-01T09:30:29;100359.72;;;11.07;46.77
75794;BME280;64418;47.536;19.074;2023-02-01T09:32:54;100333.81;;;8.90;52.51
75794;BME280;64418;47.536;19.074;2023-02-01T09:35:22;100325.25;;;8.86;53.85
75794;BME280;64418;47.536;19.074;2023-02-01T09:37:48;100343.28;;;10.49;50.33
75794;BME280;64418;47.536;19.074;2023-02-01T09:40:17;100346.53;;;12.95;44.68
75794;BME280;64418;47.536;19.074;2023-02-01T09:45:42;100358.47;;;9.83;51.99
75794;BME280;64418;47.536;19.074;2023-02-01T09:48:13;100366.22;;;7.54;60.45
75794;BME280;64418;47.536;19.074;2023-02-01T09:50:45;100363.78;;;8.95;56.63
75794;BME280;64418;47.536;19.074;2023-02-01T09:53:19;100359.16;;;7.24;61.27
75794;BME280;64418;47.536;19.074;2023-02-01T09:55:50;100351.69;;;6.97;63.02
75794;BME280;64418;47.536;19.074;2023-02-01T09:58:19;100342.22;;;9.77;53.77
75794;BME280;64418;47.536;19.074;2023-02-01T10:00:51;100351.97;;;12.01;48.87
75794;BME280;64418;47.536;19.074;2023-02-01T10:03:17;100342.41;;;13.54;43.87
75794;BME280;64418;47.536;19.074;2023-02-01T10:05:54;100342.78;;;14.23;40.71
75794;BME280;64418;47.536;19.074;2023-02-01T10:08:33;100324.38;;;15.02;39.01
75794;BME280;64418;47.536;19.074;2023-02-01T10:11:13;100331.44;;;12.99;42.32
75794;BME280;64418;47.536;19.074;2023-02-01T10:13:53;100333.88;;;10.58;48.38
75794;BME280;64418;47.536;19.074;2023-02-01T10:16:31;100323.31;;;8.10;55.22
75794;BME280;64418;47.536;19.074;2023-02-01T10:19:19;100321.09;;;7.78;56.88
75794;BME280;64418;47.536;19.074;2023-02-01T10:21:53;100313.69;;;12.72;45.35
75794;BME280;64418;47.536;19.074;2023-02-01T10:24:41;100313.78;;;13.99;40.09
75794;BME280;64418;47.536;19.074;2023-02-01T10:27:22;100296.72;;;10.00;49.76
75794;BME280;64418;47.536;19.074;2023-02-01T10:29:54;100284.78;;;8.65;54.23
75794;BME280;64418;47.536;19.074;2023-02-01T10:32:24;100287.97;;;11.16;48.79
75794;BME280;64418;47.536;19.074;2023-02-01T10:34:57;100290.16;;;12.59;44.57
75794;BME280;64418;47.536;19.074;2023-02-01T10:37:28;100300.28;;;13.56;42.45
75794;BME280;64418;47.536;19.074;2023-02-01T10:39:56;100304.66;;;13.93;41.25
75794;BME280;64418;47.536;19.074;2023-02-01T10:42:25;100281.53;;;14.26;41.11
75794;BME280;64418;47.536;19.074;2023-02-01T10:44:53;100298.53;;;13.80;41.24
75794;BME280;64418;47.536;19.074;2023-02-01T10:47:20;100305.66;;;13.81;41.56
75794;BME280;64418;47.536;19.074;2023-02-01T10:49:52;100286.38;;;12.35;44.85
75794;BME280;64418;47.536;19.074;2023-02-01T10:52:23;100291.09;;;11.84;45.88
75794;BME280;64418;47.536;19.074;2023-02-01T10:54:56;100293.28;;;13.67;41.99
75794;BME280;64418;47.536;19.074;2023-02-01T10:57:23;100281.31;;;13.49;43.34
75794;BME280;64418;47.536;19.074;2023-02-01T10:59:49;100285.09;;;14.68;40.34
75794;BME280;64418;47.536;19.074;2023-02-01T11:02:23;100265.81;;;11.32;46.89
75794;BME280;64418;47.536;19.074;2023-02-01T11:04:58;100263.50;;;11.29;47.28
75794;BME280;64418;47.536;19.074;2023-02-01T11:07:25;100257.81;;;12.51;45.22
75794;BME280;64418;47.536;19.074;2023-02-01T11:09:54;100265.53;;;10.37;50.70
75794;BME280;64418;47.536;19.074;2023-02-01T11:12:31;100254.94;;;10.48;50.38
75794;BME280;64418;47.536;19.074;2023-02-01T11:15:01;100260.69;;;10.06;51.86
75794;BME280;64418;47.536;19.074;2023-02-01T11:17:32;100249.06;;;9.38;53.77
75794;BME280;64418;47.536;19.074;2023-02-01T11:19:59;100240.28;;;8.89;55.52
75794;BME280;64418;47.536;19.074;2023-02-01T11:22:25;100241.69;;;8.78;56.09
75794;BME280;64418;47.536;19.074;2023-02-01T11:24:53;100243.63;;;8.35;57.62
75794;BME280;64418;47.536;19.074;2023-02-01T11:27:21;100239.47;;;8.11;58.32
75794;BME280;64418;47.536;19.074;2023-02-01T11:29:51;100238.91;;;7.95;59.95
75794;BME280;64418;47.536;19.074;2023-02-01T11:32:20;100233.19;;;8.04;60.30
75794;BME280;64418;47.536;19.074;2023-02-01T11:34:48;100236.38;;;8.36;60.08
75794;BME280;64418;47.536;19.074;2023-02-01T11:37:18;100237.34;;;7.64;63.06
75794;BME280;64418;47.536;19.074;2023-02-01T11:39:55;100234.50;;;7.01;66.10
75794;BME280;64418;47.536;19.074;2023-02-01T11:42:21;100237.37;;;6.70;67.89
75794;BME280;64418;47.536;19.074;2023-02-01T11:44:47;100231.13;;;6.40;70.27
75794;BME280;64418;47.536;19.074;2023-02-01T11:47:24;100234.41;;;6.13;71.29
75794;BME280;64418;47.536;19.074;2023-02-01T11:49:52;100237.53;;;6.02;73.28
75794;BME280;64418;47.536;19.074;2023-02-01T11:52:34;100239.31;;;5.87;74.73
75794;BME280;64418;47.536;19.074;2023-02-01T11:55:16;100234.03;;;5.70;75.76
75794;BME280;64418;47.536;19.074;2023-02-01T11:57:57;100212.28;;;5.57;77.60
75794;BME280;64418;47.536;19.074;2023-02-01T12:00:42;100208.94;;;5.55;77.12
75794;BME280;64418;47.536;19.074;2023-02-01T12:03:35;100211.34;;;5.50;77.75
75794;BME280;64418;47.536;19.074;2023-02-01T12:06:11;100207.31;;;6.00;77.15
75794;BME280;64418;47.536;19.074;2023-02-01T12:09:05;100201.41;;;6.19;77.75
75794;BME280;64418;47.536;19.074;2023-02-01T12:11:44;100191.66;;;6.18;76.99
75794;BME280;64418;47.536;19.074;2023-02-01T12:14:23;100195.12;;;5.89;77.37
75794;BME280;64418;47.536;19.074;2023-02-01T12:17:03;100194.53;;;5.71;79.34
75794;BME280;64418;47.536;19.074;2023-02-01T12:19:44;100190.22;;;5.47;80.28
75794;BME280;64418;47.536;19.074;2023-02-01T12:22:28;100192.22;;;5.45;80.45
75794;BME280;64418;47.536;19.074;2023-02-01T12:25:15;100199.91;;;5.48;80.74
75794;BME280;64418;47.536;19.074;2023-02-01T12:28:10;100201.53;;;5.34;81.29
75794;BME280;64418;47.536;19.074;2023-02-01T12:30:54;100211.38;;;5.11;83.34
75794;BME280;64418;47.536;19.074;2023-02-01T12:33:34;100215.34;;;4.84;83.82
75794;BME280;64418;47.536;19.074;2023-02-01T12:36:11;100216.44;;;4.67;85.67
75794;BME280;64418;47.536;19.074;2023-02-01T12:38:51;100225.50;;;4.58;87.62
75794;BME280;64418;47.536;19.074;2023-02-01T12:41:38;100233.94;;;4.39;87.77
75794;BME280;64418;47.536;19.074;2023-02-01T12:44:12;100236.31;;;4.26;89.36
75794;BME280;64418;47.536;19.074;2023-02-01T12:46:45;100229.94;;;4.19;89.98
75794;BME280;64418;47.536;19.074;2023-02-01T12:49:18;100228.75;;;4.05;89.22
75794;BME280;64418;47.536;19.074;2023-02-01T12:51:47;100214.56;;;3.88;88.96
75794;BME280;64418;47.536;19.074;2023-02-01T12:54:19;100193.09;;;3.97;89.64
75794;BME280;64418;47.536;19.074;2023-02-01T12:56:49;100203.50;;;4.00;89.05
75794;BME280;64418;47.536;19.074;2023-02-01T12:59:22;100204.50;;;4.07;89.75
75794;BME280;64418;47.536;19.074;2023-02-01T13:01:54;100202.13;;;4.12;89.86
75794;BME280;64418;47.536;19.074;2023-02-01T13:04:25;100185.72;;;4.23;89.18